CWT weather

Cowra Airport
New South Wales, Australia

Public forecast

Using degrees Celsius for public forecast. Weather courtesy of forecast.io.

METAR (pilot weather report)

Closest report is Mudgee Airport, 90.9 nm (168.3 km) NNE. Retrieved 2019/04/19 08:00 UTC (35 minutes ago):

YMDG 190800Z AUTO 06007KT 9999 // NCD 22/13 Q1026

TAF (pilot weather forecast)

Closest forecast is Canberra International Airport, 91.8 nm (170.1 km) SSE. Retrieved 2019/04/19 06:00 UTC (3 hours ago):

TAF YSCB 190541Z 1906/2006 33008KT 9999 FEW050 FM190800 09005KT 9999 FEW020 BECMG 1913/1915 11004KT 9999 BKN015 BECMG 1922/1924 14005KT 9999 SCT020 FM200300 36008KT CAVOK PROB30 1914/1922 0500 FG